createdAt,value
2022-09-26T00:00:06.744Z,11.83
2022-09-26T00:02:33.789Z,11.63
2022-09-26T00:05:01.107Z,12.13
2022-09-26T00:07:28.107Z,11.93
2022-09-26T00:09:55.508Z,11.37
2022-09-26T00:12:22.497Z,11.67
2022-09-26T00:14:49.478Z,12.80
2022-09-26T00:17:16.505Z,12.00
2022-09-26T00:19:43.538Z,12.43
2022-09-26T00:22:10.534Z,11.97
2022-09-26T00:24:37.539Z,12.37
2022-09-26T00:27:04.558Z,13.17
2022-09-26T00:29:31.573Z,12.53
2022-09-26T00:31:58.573Z,12.03
2022-09-26T00:34:25.556Z,12.83
2022-09-26T00:36:52.720Z,11.80
2022-09-26T00:39:19.716Z,14.10
2022-09-26T00:41:46.829Z,12.70
2022-09-26T00:44:38.403Z,13.53
2022-09-26T00:47:07.833Z,14.03
2022-09-26T00:49:36.607Z,14.13
2022-09-26T00:52:06.126Z,14.00
2022-09-26T00:54:35.520Z,16.30
2022-09-26T00:57:05.754Z,14.80
2022-09-26T00:59:38.204Z,13.97
2022-09-26T01:02:05.590Z,13.40
2022-09-26T01:04:34.466Z,15.10
2022-09-26T01:07:02.955Z,14.60
2022-09-26T01:09:31.215Z,14.80
2022-09-26T01:12:00.764Z,14.73
2022-09-26T01:14:28.200Z,14.73
2022-09-26T01:16:55.905Z,15.13
2022-09-26T01:19:32.264Z,14.83
2022-09-26T01:21:59.222Z,15.13
2022-09-26T01:24:32.541Z,16.50
2022-09-26T01:27:06.577Z,14.97
2022-09-26T01:30:00.851Z,20.10
2022-09-26T01:32:52.072Z,15.97
2022-09-26T01:35:21.739Z,15.13
2022-09-26T01:38:12.456Z,16.63
2022-09-26T01:41:04.780Z,17.27
2022-09-26T01:43:35.965Z,17.73
2022-09-26T01:46:35.151Z,15.60
2022-09-26T01:49:12.375Z,16.73
2022-09-26T01:52:01.696Z,16.63
2022-09-26T01:54:36.539Z,17.23
2022-09-26T01:57:06.662Z,16.40
2022-09-26T01:59:40.948Z,16.47
2022-09-26T02:02:30.331Z,16.27
2022-09-26T02:05:00.740Z,15.40
2022-09-26T02:07:46.311Z,15.60
2022-09-26T02:10:22.806Z,17.27
2022-09-26T02:12:54.941Z,15.00
2022-09-26T02:15:24.333Z,15.17
2022-09-26T02:17:55.170Z,14.97
2022-09-26T02:20:27.486Z,13.60
2022-09-26T02:22:54.528Z,13.33
2022-09-26T02:25:21.526Z,13.57
2022-09-26T02:27:50.148Z,14.47
2022-09-26T02:30:17.253Z,13.10
2022-09-26T02:32:44.258Z,12.43
2022-09-26T02:35:34.759Z,12.87
2022-09-26T02:38:02.170Z,12.93
2022-09-26T02:40:36.797Z,13.57
2022-09-26T02:43:12.003Z,15.13
2022-09-26T02:46:04.152Z,12.87
2022-09-26T02:49:15.239Z,13.47
2022-09-26T02:52:20.237Z,12.40
2022-09-26T02:55:19.078Z,12.20
2022-09-26T02:58:05.772Z,12.63
2022-09-26T03:00:53.035Z,12.23
2022-09-26T03:03:23.631Z,11.93
2022-09-26T03:05:53.584Z,13.57
2022-09-26T03:08:26.877Z,12.80
2022-09-26T03:10:56.610Z,12.53
2022-09-26T03:13:24.634Z,12.80
2022-09-26T03:15:55.100Z,13.17
2022-09-26T03:18:26.278Z,13.80
2022-09-26T03:20:54.119Z,13.43
2022-09-26T03:23:26.316Z,16.58
2022-09-26T03:26:01.797Z,13.40
2022-09-26T03:28:29.519Z,12.33
2022-09-26T03:30:58.373Z,12.93
2022-09-26T03:33:24.949Z,12.47
2022-09-26T03:35:51.618Z,12.33
2022-09-26T03:38:18.225Z,12.43
2022-09-26T03:40:46.383Z,10.57
2022-09-26T03:43:13.407Z,12.10
2022-09-26T03:45:40.030Z,11.37
2022-09-26T03:48:06.664Z,9.57
2022-09-26T03:50:33.875Z,10.40
2022-09-26T03:53:01.448Z,10.47
2022-09-26T03:55:28.403Z,9.30
2022-09-26T03:57:55.982Z,10.85
2022-09-26T04:00:22.595Z,9.20
2022-09-26T04:02:49.207Z,9.20
2022-09-26T04:05:15.995Z,9.23
2022-09-26T04:07:44.612Z,8.93
2022-09-26T04:10:12.183Z,8.87
2022-09-26T04:12:39.622Z,8.43
2022-09-26T04:15:07.677Z,7.87
2022-09-26T04:17:34.473Z,8.20
2022-09-26T04:20:02.058Z,7.70
2022-09-26T04:22:29.086Z,7.03
2022-09-26T04:24:57.044Z,7.53
2022-09-26T04:27:27.352Z,7.17
2022-09-26T04:29:54.326Z,7.77
2022-09-26T04:32:21.446Z,7.80
2022-09-26T04:34:48.438Z,7.90
2022-09-26T04:37:15.438Z,9.32
2022-09-26T04:39:42.447Z,8.73
2022-09-26T04:42:09.503Z,7.93
2022-09-26T04:44:36.502Z,7.47
2022-09-26T04:47:03.814Z,7.87
2022-09-26T04:49:31.081Z,7.50
2022-09-26T04:51:58.084Z,8.33
2022-09-26T04:54:26.276Z,8.23
2022-09-26T04:56:53.319Z,6.93
2022-09-26T04:59:20.391Z,8.07
2022-09-26T05:01:48.063Z,8.23
2022-09-26T05:04:15.155Z,9.17
2022-09-26T05:06:42.148Z,9.03
2022-09-26T05:09:09.200Z,8.00
2022-09-26T05:11:36.330Z,8.88
2022-09-26T05:14:04.005Z,8.23
2022-09-26T05:16:31.238Z,9.37
2022-09-26T05:18:58.458Z,8.93
2022-09-26T05:21:25.463Z,8.50
2022-09-26T05:24:11.181Z,8.00
2022-09-26T05:26:42.707Z,7.47
2022-09-26T05:29:10.163Z,8.00
2022-09-26T05:31:38.016Z,8.43
2022-09-26T05:34:13.011Z,9.43
2022-09-26T05:36:42.688Z,9.47
2022-09-26T05:39:29.689Z,9.50
2022-09-26T05:41:57.681Z,8.73
2022-09-26T05:44:24.670Z,8.73
2022-09-26T05:46:52.088Z,9.60
2022-09-26T05:49:19.226Z,8.30
2022-09-26T05:51:46.491Z,8.70
2022-09-26T05:54:13.611Z,9.43
2022-09-26T05:56:40.726Z,8.97
2022-09-26T05:59:07.773Z,8.87
2022-09-26T06:01:35.363Z,8.57
2022-09-26T06:04:02.940Z,8.50
2022-09-26T06:06:30.300Z,8.50
2022-09-26T06:08:57.358Z,7.83
2022-09-26T06:11:30.520Z,7.70
2022-09-26T06:13:59.216Z,7.87
2022-09-26T06:16:26.320Z,7.80
2022-09-26T06:18:54.965Z,7.77
2022-09-26T06:21:22.698Z,7.10
2022-09-26T06:23:49.780Z,7.00
2022-09-26T06:26:20.056Z,6.85
2022-09-26T06:28:47.164Z,6.70
2022-09-26T06:31:15.827Z,7.13
2022-09-26T06:33:42.959Z,6.80
2022-09-26T06:36:11.090Z,6.83
2022-09-26T06:38:38.762Z,6.07
2022-09-26T06:41:07.233Z,6.23
2022-09-26T06:43:34.276Z,5.87
2022-09-26T06:46:01.279Z,5.23
2022-09-26T06:48:28.318Z,5.10
2022-09-26T06:51:00.246Z,3.93
2022-09-26T06:53:27.866Z,4.07
2022-09-26T06:55:55.074Z,3.63
2022-09-26T06:58:22.127Z,3.60
2022-09-26T07:00:49.322Z,3.53
2022-09-26T07:03:16.437Z,3.50
2022-09-26T07:05:45.139Z,3.92
2022-09-26T07:08:12.128Z,3.70
2022-09-26T07:10:39.348Z,4.00
2022-09-26T07:13:48.591Z,3.20
2022-09-26T07:16:31.400Z,3.30
2022-09-26T07:19:12.332Z,3.63
2022-09-26T07:21:41.937Z,3.03
2022-09-26T07:24:13.860Z,3.40
2022-09-26T07:26:44.007Z,3.17
2022-09-26T07:29:11.102Z,3.80
2022-09-26T07:31:38.166Z,3.33
2022-09-26T07:34:05.290Z,3.10
2022-09-26T07:36:32.351Z,3.30
2022-09-26T07:39:01.129Z,3.10
2022-09-26T07:41:31.069Z,3.17
2022-09-26T07:47:04.392Z,2.40
2022-09-26T07:49:50.266Z,2.90
2022-09-26T07:52:17.491Z,2.83
2022-09-26T07:54:44.928Z,3.03
2022-09-26T07:57:12.585Z,2.60
2022-09-26T07:59:39.632Z,2.67
2022-09-26T08:02:06.681Z,2.67
2022-09-26T08:04:33.815Z,2.83
2022-09-26T08:07:00.861Z,2.73
2022-09-26T08:09:28.466Z,2.70
2022-09-26T08:11:56.207Z,3.30
2022-09-26T08:14:23.201Z,2.87
2022-09-26T08:16:50.206Z,3.00
2022-09-26T08:19:17.702Z,3.03
2022-09-26T08:21:44.714Z,2.60
2022-09-26T08:24:11.779Z,3.17
2022-09-26T08:26:44.077Z,2.90
2022-09-26T08:29:12.308Z,2.90
2022-09-26T08:31:39.357Z,3.00
2022-09-26T08:34:07.323Z,3.27
2022-09-26T08:36:36.959Z,2.90
2022-09-26T08:39:04.754Z,2.90
2022-09-26T08:41:34.022Z,2.87
2022-09-26T08:44:25.109Z,3.00
2022-09-26T08:47:06.460Z,3.20
2022-09-26T08:49:44.221Z,3.00
2022-09-26T08:52:27.799Z,3.00
2022-09-26T08:55:07.200Z,2.90
2022-09-26T08:58:20.197Z,2.93
2022-09-26T09:00:52.075Z,3.00
2022-09-26T09:04:05.968Z,2.70
2022-09-26T09:06:37.430Z,3.25
2022-09-26T09:09:34.243Z,3.10
2022-09-26T09:12:09.654Z,3.00
2022-09-26T09:14:57.962Z,2.57
2022-09-26T09:17:39.808Z,2.80
2022-09-26T09:20:14.958Z,2.93
2022-09-26T09:22:44.713Z,2.47
2022-09-26T09:25:17.183Z,2.50
2022-09-26T09:28:05.418Z,2.40
2022-09-26T09:30:48.227Z,2.30
2022-09-26T09:33:21.112Z,2.40
2022-09-26T09:35:57.032Z,2.40
2022-09-26T09:38:28.668Z,2.10
2022-09-26T09:41:11.068Z,2.00
2022-09-26T09:43:47.434Z,2.10
2022-09-26T09:46:28.575Z,2.10
2022-09-26T09:49:11.066Z,2.33
2022-09-26T09:52:00.210Z,2.00
2022-09-26T09:54:52.938Z,1.73
2022-09-26T09:57:49.306Z,2.20
2022-09-26T10:00:24.073Z,1.97
2022-09-26T10:03:11.244Z,1.63
2022-09-26T10:05:53.648Z,1.97
2022-09-26T10:08:33.826Z,1.97
2022-09-26T10:11:28.334Z,2.10
2022-09-26T10:13:59.978Z,1.93
2022-09-26T10:16:26.724Z,2.40
2022-09-26T10:19:09.226Z,2.23
2022-09-26T10:21:40.593Z,1.90
2022-09-26T10:24:22.118Z,1.70
2022-09-26T10:26:50.178Z,1.90
2022-09-26T10:29:34.983Z,1.87
2022-09-26T10:32:02.401Z,2.10
2022-09-26T10:34:31.509Z,1.80
2022-09-26T10:37:22.555Z,2.00
2022-09-26T10:40:13.073Z,1.50
2022-09-26T10:42:40.053Z,1.80
2022-09-26T10:45:29.362Z,1.70
2022-09-26T10:47:57.291Z,1.63
2022-09-26T10:50:27.789Z,1.60
2022-09-26T10:53:04.734Z,1.97
2022-09-26T10:56:02.136Z,1.60
2022-09-26T10:58:29.849Z,1.83
2022-09-26T11:01:00.594Z,1.40
2022-09-26T11:03:40.590Z,1.83
2022-09-26T11:06:24.158Z,1.77
2022-09-26T11:08:57.142Z,1.57
2022-09-26T11:11:24.247Z,1.80
2022-09-26T11:14:03.784Z,1.60
2022-09-26T11:16:54.401Z,1.87
2022-09-26T11:19:27.206Z,1.83
2022-09-26T11:22:19.372Z,1.60
2022-09-26T11:25:17.122Z,1.47
2022-09-26T11:27:47.405Z,1.70
2022-09-26T11:30:20.756Z,1.60
2022-09-26T11:32:53.926Z,1.70
2022-09-26T11:35:59.174Z,1.83
2022-09-26T11:38:38.780Z,1.60
2022-09-26T11:41:38.419Z,1.80
2022-09-26T11:44:28.258Z,1.67
2022-09-26T11:47:08.162Z,1.80
2022-09-26T11:49:52.516Z,1.93
2022-09-26T11:52:19.030Z,1.63
2022-09-26T11:55:17.089Z,1.73
2022-09-26T11:58:16.868Z,1.23
2022-09-26T12:01:19.900Z,1.20
2022-09-26T12:04:11.961Z,1.37
2022-09-26T12:06:53.962Z,2.00
2022-09-26T12:09:30.013Z,2.33
2022-09-26T12:12:05.903Z,1.83
2022-09-26T12:14:39.163Z,1.95
2022-09-26T12:17:15.297Z,1.63
2022-09-26T12:20:01.038Z,1.73
2022-09-26T12:22:43.527Z,1.70
2022-09-26T12:25:22.749Z,1.27
2022-09-26T12:28:19.638Z,1.50
2022-09-26T12:31:19.346Z,1.80
2022-09-26T12:34:18.756Z,1.63
2022-09-26T12:37:01.705Z,1.67
2022-09-26T12:39:58.440Z,1.77
2022-09-26T12:42:48.652Z,1.90
2022-09-26T12:46:08.625Z,1.90
2022-09-26T12:49:06.725Z,1.83
2022-09-26T12:51:43.687Z,1.50
2022-09-26T12:54:22.394Z,1.50
2022-09-26T12:57:39.593Z,1.60
2022-09-26T13:00:23.040Z,1.70
2022-09-26T13:03:13.893Z,1.63
2022-09-26T13:06:12.794Z,1.50
2022-09-26T13:08:57.201Z,1.60
2022-09-26T13:11:52.784Z,1.60
2022-09-26T13:14:27.372Z,1.50
2022-09-26T13:17:06.099Z,1.43
2022-09-26T13:20:00.853Z,1.40
2022-09-26T13:22:53.915Z,1.40
2022-09-26T13:25:34.017Z,1.30
2022-09-26T13:28:15.587Z,1.20
2022-09-26T13:30:49.967Z,1.00
2022-09-26T13:33:39.446Z,1.20
2022-09-26T13:36:07.350Z,1.00
2022-09-26T13:38:39.080Z,1.20
2022-09-26T13:41:37.622Z,1.00
2022-09-26T13:44:29.547Z,1.00
2022-09-26T13:47:01.797Z,1.40
2022-09-26T13:49:49.865Z,1.30
2022-09-26T13:52:35.044Z,1.20
2022-09-26T13:55:14.952Z,1.20
2022-09-26T13:57:46.719Z,1.10
2022-09-26T14:00:25.911Z,1.47
2022-09-26T14:03:22.783Z,1.23
2022-09-26T14:05:51.953Z,1.50
2022-09-26T14:08:43.414Z,1.50
2022-09-26T14:11:19.322Z,1.40
2022-09-26T14:13:47.594Z,1.57
2022-09-26T14:16:35.777Z,1.60
2022-09-26T14:19:11.063Z,1.50
2022-09-26T14:21:44.626Z,1.50
2022-09-26T14:24:20.371Z,1.50
2022-09-26T14:27:05.794Z,1.50
2022-09-26T14:29:32.809Z,1.37
2022-09-26T14:32:09.755Z,1.40
2022-09-26T14:34:57.803Z,1.50
2022-09-26T14:37:24.337Z,1.30
2022-09-26T14:39:52.644Z,1.63
2022-09-26T14:42:27.075Z,1.60
2022-09-26T14:45:00.813Z,1.60
2022-09-26T14:47:40.150Z,1.37
2022-09-26T14:50:25.626Z,1.53
2022-09-26T14:52:55.047Z,1.50
2022-09-26T14:55:21.966Z,1.67
2022-09-26T14:57:48.620Z,1.20
2022-09-26T15:00:36.235Z,1.40
2022-09-26T15:03:12.557Z,1.50
2022-09-26T15:05:41.379Z,1.60
2022-09-26T15:08:26.976Z,1.40
2022-09-26T15:10:57.292Z,1.50
2022-09-26T15:13:32.501Z,1.20
2022-09-26T15:16:34.636Z,1.57
2022-09-26T15:19:11.560Z,1.27
2022-09-26T15:21:44.464Z,1.43
2022-09-26T15:24:35.385Z,1.30
2022-09-26T15:27:10.559Z,1.30
2022-09-26T15:29:46.099Z,1.27
2022-09-26T15:32:17.087Z,1.60
2022-09-26T15:34:44.373Z,1.27
2022-09-26T15:37:18.951Z,1.30
2022-09-26T15:39:45.991Z,1.70
2022-09-26T15:42:41.866Z,1.30
2022-09-26T15:45:35.174Z,1.27
2022-09-26T15:48:23.857Z,1.50
2022-09-26T15:51:00.671Z,1.57
2022-09-26T15:53:50.324Z,1.60
2022-09-26T15:56:23.078Z,1.60
2022-09-26T15:59:00.960Z,1.70
2022-09-26T16:01:31.025Z,1.40
2022-09-26T16:04:02.456Z,1.60
2022-09-26T16:06:35.203Z,1.30
2022-09-26T16:09:08.471Z,2.40
2022-09-26T16:11:56.247Z,1.80
2022-09-26T16:14:50.209Z,5.00
2022-09-26T16:17:24.665Z,2.10
2022-09-26T16:19:57.265Z,1.83
2022-09-26T16:22:26.811Z,1.60
2022-09-26T16:24:53.397Z,1.60
2022-09-26T16:27:26.078Z,1.40
2022-09-26T16:29:53.125Z,1.60
2022-09-26T16:32:21.928Z,1.73
2022-09-26T16:34:49.333Z,1.60
2022-09-26T16:37:20.634Z,1.50
2022-09-26T16:40:00.733Z,1.40
2022-09-26T16:42:32.703Z,1.80
2022-09-26T16:45:03.877Z,1.97
2022-09-26T16:47:47.776Z,2.13
2022-09-26T16:50:28.698Z,2.23
2022-09-26T16:52:56.082Z,3.57
2022-09-26T16:55:24.231Z,2.80
2022-09-26T16:57:55.758Z,2.23
2022-09-26T17:00:42.638Z,1.90
2022-09-26T17:03:21.605Z,1.80
2022-09-26T17:05:49.004Z,1.70
2022-09-26T17:08:17.315Z,2.70
2022-09-26T17:10:44.851Z,2.67
2022-09-26T17:13:26.221Z,2.10
2022-09-26T17:15:55.421Z,2.00
2022-09-26T17:18:28.775Z,1.93
2022-09-26T17:20:56.593Z,1.90
2022-09-26T17:23:40.899Z,2.00
2022-09-26T17:26:18.022Z,2.03
2022-09-26T17:28:45.006Z,2.37
2022-09-26T17:31:14.688Z,1.93
2022-09-26T17:33:42.499Z,2.10
2022-09-26T17:36:15.275Z,1.93
2022-09-26T17:38:43.376Z,2.40
2022-09-26T17:41:12.576Z,2.17
2022-09-26T17:43:39.880Z,1.87
2022-09-26T17:46:15.239Z,2.30
2022-09-26T17:48:43.134Z,2.40
2022-09-26T17:51:14.245Z,2.33
2022-09-26T17:53:49.504Z,2.10
2022-09-26T17:56:17.392Z,2.27
2022-09-26T17:58:44.813Z,2.17
2022-09-26T18:01:19.520Z,2.17
2022-09-26T18:03:46.682Z,2.10
2022-09-26T18:06:13.676Z,2.00
2022-09-26T18:08:41.421Z,2.00
2022-09-26T18:11:13.819Z,2.30
2022-09-26T18:13:44.859Z,2.10
2022-09-26T18:16:12.043Z,2.00
2022-09-26T18:18:39.224Z,1.80
2022-09-26T18:21:06.773Z,2.40
2022-09-26T18:23:42.302Z,2.30
2022-09-26T18:26:10.931Z,2.53
2022-09-26T18:28:38.822Z,2.30
2022-09-26T18:31:06.542Z,2.00
2022-09-26T18:33:37.879Z,2.17
2022-09-26T18:36:05.278Z,2.30
2022-09-26T18:38:32.263Z,2.33
2022-09-26T18:40:59.438Z,1.90
2022-09-26T18:43:29.401Z,2.10
2022-09-26T18:45:57.526Z,2.27
2022-09-26T18:48:26.021Z,2.33
2022-09-26T18:50:53.699Z,1.93
2022-09-26T18:53:22.034Z,2.33
2022-09-26T18:56:08.223Z,2.30
2022-09-26T18:58:35.548Z,2.10
2022-09-26T19:01:05.434Z,2.30
2022-09-26T19:03:34.282Z,2.80
2022-09-26T19:06:03.768Z,2.50
2022-09-26T19:08:35.370Z,2.50
2022-09-26T19:11:03.992Z,1.90
2022-09-26T19:13:32.108Z,2.13
2022-09-26T19:15:59.172Z,1.97
2022-09-26T19:18:26.196Z,2.57
2022-09-26T19:20:53.576Z,2.40
2022-09-26T19:23:21.222Z,2.13
2022-09-26T19:25:48.390Z,2.00
2022-09-26T19:28:18.855Z,2.00
2022-09-26T19:30:46.268Z,2.67
2022-09-26T19:33:13.315Z,2.30
2022-09-26T19:35:40.648Z,2.20
2022-09-26T19:38:20.899Z,2.10
2022-09-26T19:40:49.154Z,2.25
2022-09-26T19:43:16.656Z,2.20
2022-09-26T19:45:44.198Z,2.33
2022-09-26T19:48:16.146Z,2.00
2022-09-26T19:50:43.858Z,2.70
2022-09-26T19:53:14.481Z,3.23
2022-09-26T19:55:42.288Z,2.20
2022-09-26T19:58:20.162Z,2.47
2022-09-26T20:00:49.466Z,3.27
2022-09-26T20:03:17.870Z,2.13
2022-09-26T20:05:49.335Z,1.80
2022-09-26T20:08:17.487Z,2.50
2022-09-26T20:10:44.934Z,2.63
2022-09-26T20:13:11.905Z,2.00
2022-09-26T20:15:38.933Z,2.20
2022-09-26T20:18:07.066Z,2.00
2022-09-26T20:20:34.905Z,2.10
2022-09-26T20:23:02.652Z,1.83
2022-09-26T20:25:31.069Z,2.10
2022-09-26T20:27:58.500Z,2.00
2022-09-26T20:30:44.796Z,1.57
2022-09-26T20:33:13.296Z,1.90
2022-09-26T20:35:45.267Z,1.63
2022-09-26T20:38:15.703Z,1.83
2022-09-26T20:40:42.807Z,2.03
2022-09-26T20:43:14.391Z,2.03
2022-09-26T20:45:42.117Z,2.03
2022-09-26T20:48:16.303Z,2.10
2022-09-26T20:50:44.018Z,1.90
2022-09-26T20:53:16.778Z,2.03
2022-09-26T20:55:44.369Z,2.00
2022-09-26T20:58:11.627Z,1.70
2022-09-26T21:00:39.013Z,2.00
2022-09-26T21:03:06.734Z,1.90
2022-09-26T21:05:34.304Z,1.60
2022-09-26T21:08:01.627Z,1.70
2022-09-26T21:10:32.672Z,1.60
2022-09-26T21:13:00.149Z,1.50
2022-09-26T21:15:28.629Z,1.77
2022-09-26T21:17:55.983Z,1.50
2022-09-26T21:20:33.486Z,1.60
2022-09-26T21:23:01.342Z,1.60
2022-09-26T21:25:30.309Z,1.30
2022-09-26T21:28:07.194Z,1.90
2022-09-26T21:30:34.261Z,1.57
2022-09-26T21:33:01.323Z,1.20
2022-09-26T21:35:29.584Z,1.60
2022-09-26T21:37:58.203Z,1.40
2022-09-26T21:40:27.198Z,1.30
2022-09-26T21:42:56.919Z,1.30
2022-09-26T21:45:27.630Z,1.20
2022-09-26T21:47:55.750Z,1.30
2022-09-26T21:50:23.767Z,1.37
2022-09-26T21:52:54.207Z,1.37
2022-09-26T21:55:23.872Z,1.40
2022-09-26T21:57:52.307Z,1.47
2022-09-26T22:00:19.316Z,1.10
2022-09-26T22:02:46.359Z,1.40
2022-09-26T22:05:16.626Z,1.40
2022-09-26T22:07:43.857Z,1.33
2022-09-26T22:10:11.013Z,1.17
2022-09-26T22:12:37.987Z,1.20
2022-09-26T22:15:06.955Z,1.27
2022-09-26T22:17:34.116Z,1.27
2022-09-26T22:20:01.230Z,1.10
2022-09-26T22:22:28.256Z,1.13
2022-09-26T22:24:55.303Z,1.10
2022-09-26T22:27:22.318Z,1.30
2022-09-26T22:29:49.297Z,1.30
2022-09-26T22:32:16.275Z,1.40
2022-09-26T22:34:43.258Z,1.20
2022-09-26T22:37:10.271Z,1.10
2022-09-26T22:39:37.254Z,1.20
2022-09-26T22:42:04.253Z,1.10
2022-09-26T22:44:31.255Z,1.20
2022-09-26T22:46:58.232Z,1.50
2022-09-26T22:49:25.244Z,1.10
2022-09-26T22:51:52.231Z,1.20
2022-09-26T22:54:19.505Z,1.40
2022-09-26T22:56:46.494Z,1.30
2022-09-26T22:59:13.583Z,1.30
2022-09-26T23:01:40.766Z,1.37
2022-09-26T23:04:07.831Z,1.37
2022-09-26T23:06:34.872Z,1.40
2022-09-26T23:09:01.884Z,1.40
2022-09-26T23:11:29.107Z,1.50
2022-09-26T23:13:56.155Z,1.20
2022-09-26T23:16:25.826Z,1.10
2022-09-26T23:18:53.721Z,1.27
2022-09-26T23:21:22.149Z,1.37
2022-09-26T23:23:50.854Z,1.30
2022-09-26T23:26:31.824Z,1.40
2022-09-26T23:28:59.363Z,1.30
2022-09-26T23:31:26.943Z,1.43
2022-09-26T23:33:54.166Z,1.20
2022-09-26T23:36:21.227Z,1.40
2022-09-26T23:38:48.245Z,1.60
2022-09-26T23:41:15.358Z,1.63
2022-09-26T23:43:42.491Z,1.50
2022-09-26T23:46:10.370Z,1.50
2022-09-26T23:48:37.456Z,1.40
2022-09-26T23:51:04.499Z,1.30
2022-09-26T23:53:31.671Z,1.40
2022-09-26T23:56:09.462Z,1.53
2022-09-26T23:58:37.128Z,1.40
